Midway, Indiana
Current Conditions -  °F | °C
As of 3:10 AM on Monday 24 Nov 2014 (Local Time) from KEVV Reporting Station
Thunderstorm Thunderstorm  
Wind Chill: 61°   Ceiling: 2500
Heat Index: 61°   Visibility: 10mi
Dew Point: 55°   Wind: 13mph
Humidity: 81%   Direction: 190°S
Pressure: 29.26"   Gusts: NA
Location:  38.0544°N, 87.2562°W
Report Text: KEVV 240910Z AUTO 19011KT 10SM VCTS FEW021 BKN025 OVC042 16/13 A2926 RMK AO2 LTG DSNT W T01610128 $
Loading
Personal Weather Stations






























Interactive Weather Map New forecast layout! Learn more

10-Day Weather Forecast

Advertisements
Track Severe Weather on mobile